sensor_id;sensor_type;location;lat;lon;timestamp;pressure;altitude;pressure_sealevel;temperature;humidity
19624;BME280;9959;49.798;9.928;2023-02-23T00:02:01;99297.31;;;6.92;100.00
19624;BME280;9959;49.798;9.928;2023-02-23T00:04:30;99294.81;;;6.91;100.00
19624;BME280;9959;49.798;9.928;2023-02-23T00:06:57;99295.66;;;6.91;100.00
19624;BME280;9959;49.798;9.928;2023-02-23T00:09:24;99296.03;;;6.88;100.00
19624;BME280;9959;49.798;9.928;2023-02-23T00:11:55;99292.72;;;6.86;100.00
19624;BME280;9959;49.798;9.928;2023-02-23T00:14:27;99288.19;;;6.87;100.00
19624;BME280;9959;49.798;9.928;2023-02-23T00:16:55;99290.28;;;6.91;100.00
19624;BME280;9959;49.798;9.928;2023-02-23T00:19:23;99286.75;;;6.84;100.00
19624;BME280;9959;49.798;9.928;2023-02-23T00:21:51;99287.63;;;6.91;100.00
19624;BME280;9959;49.798;9.928;2023-02-23T00:24:19;99289.06;;;6.94;100.00
19624;BME280;9959;49.798;9.928;2023-02-23T00:26:47;99293.22;;;6.96;100.00
19624;BME280;9959;49.798;9.928;2023-02-23T00:29:20;99285.81;;;6.98;100.00
19624;BME280;9959;49.798;9.928;2023-02-23T00:31:48;99286.63;;;6.99;100.00
19624;BME280;9959;49.798;9.928;2023-02-23T00:34:18;99285.19;;;6.96;100.00
19624;BME280;9959;49.798;9.928;2023-02-23T00:36:51;99291.94;;;6.92;100.00
19624;BME280;9959;49.798;9.928;2023-02-23T00:39:20;99272.56;;;6.90;100.00
19624;BME280;9959;49.798;9.928;2023-02-23T00:41:49;99279.59;;;6.91;100.00
19624;BME280;9959;49.798;9.928;2023-02-23T00:44:19;99270.53;;;6.92;100.00
19624;BME280;9959;49.798;9.928;2023-02-23T00:46:49;99280.22;;;6.93;100.00
19624;BME280;9959;49.798;9.928;2023-02-23T00:49:19;99274.88;;;6.93;100.00
19624;BME280;9959;49.798;9.928;2023-02-23T00:51:47;99272.03;;;7.01;100.00
19624;BME280;9959;49.798;9.928;2023-02-23T00:54:15;99274.88;;;6.93;100.00
19624;BME280;9959;49.798;9.928;2023-02-23T00:56:43;99270.91;;;6.89;100.00
19624;BME280;9959;49.798;9.928;2023-02-23T00:59:11;99275.50;;;6.95;100.00
19624;BME280;9959;49.798;9.928;2023-02-23T01:01:39;99274.44;;;6.90;100.00
19624;BME280;9959;49.798;9.928;2023-02-23T01:04:08;99271.22;;;7.01;100.00
19624;BME280;9959;49.798;9.928;2023-02-23T01:06:35;99277.38;;;7.01;100.00
19624;BME280;9959;49.798;9.928;2023-02-23T01:09:08;99282.09;;;6.99;100.00
19624;BME280;9959;49.798;9.928;2023-02-23T01:11:35;99285.38;;;6.95;100.00
19624;BME280;9959;49.798;9.928;2023-02-23T01:14:02;99288.25;;;6.93;100.00
19624;BME280;9959;49.798;9.928;2023-02-23T01:16:32;99287.63;;;6.91;100.00
19624;BME280;9959;49.798;9.928;2023-02-23T01:19:01;99275.50;;;6.95;100.00
19624;BME280;9959;49.798;9.928;2023-02-23T01:21:37;99274.72;;;7.01;100.00
19624;BME280;9959;49.798;9.928;2023-02-23T01:24:04;99270.63;;;7.05;100.00
19624;BME280;9959;49.798;9.928;2023-02-23T01:26:34;99273.50;;;7.04;100.00
19624;BME280;9959;49.798;9.928;2023-02-23T01:29:07;99269.19;;;7.09;100.00
19624;BME280;9959;49.798;9.928;2023-02-23T01:31:38;99269.78;;;7.05;100.00
19624;BME280;9959;49.798;9.928;2023-02-23T01:34:06;99269.41;;;7.14;100.00
19624;BME280;9959;49.798;9.928;2023-02-23T01:36:35;99265.06;;;7.07;100.00
19624;BME280;9959;49.798;9.928;2023-02-23T01:39:05;99267.94;;;7.12;100.00
19624;BME280;9959;49.798;9.928;2023-02-23T01:41:35;99266.53;;;7.09;100.00
19624;BME280;9959;49.798;9.928;2023-02-23T01:44:08;99268.56;;;7.07;100.00
19624;BME280;9959;49.798;9.928;2023-02-23T01:46:53;99268.34;;;7.02;100.00
19624;BME280;9959;49.798;9.928;2023-02-23T01:49:23;99268.09;;;6.97;100.00
19624;BME280;9959;49.798;9.928;2023-02-23T01:52:03;99262.72;;;6.97;100.00
19624;BME280;9959;49.798;9.928;2023-02-23T01:54:35;99263.28;;;6.86;100.00
19624;BME280;9959;49.798;9.928;2023-02-23T01:57:05;99264.53;;;6.90;100.00
19624;BME280;9959;49.798;9.928;2023-02-23T01:59:43;99270.91;;;6.89;100.00
19624;BME280;9959;49.798;9.928;2023-02-23T02:02:10;99268.88;;;6.91;100.00
19624;BME280;9959;49.798;9.928;2023-02-23T02:04:40;99262.88;;;6.89;100.00
19624;BME280;9959;49.798;9.928;2023-02-23T02:07:17;99259.44;;;6.95;100.00
19624;BME280;9959;49.798;9.928;2023-02-23T02:09:45;99265.88;;;7.07;100.00
19624;BME280;9959;49.798;9.928;2023-02-23T02:12:32;99263.63;;;7.11;100.00
19624;BME280;9959;49.798;9.928;2023-02-23T02:14:59;99266.09;;;7.12;100.00
19624;BME280;9959;49.798;9.928;2023-02-23T02:17:41;99264.88;;;7.15;100.00
19624;BME280;9959;49.798;9.928;2023-02-23T02:37:05;99259.94;;;7.19;100.00
19624;BME280;9959;49.798;9.928;2023-02-23T02:53:08;99257.47;;;7.10;100.00
19624;BME280;9959;49.798;9.928;2023-02-23T02:55:38;99255.59;;;7.11;100.00
19624;BME280;9959;49.798;9.928;2023-02-23T02:58:10;99250.44;;;7.09;100.00
19624;BME280;9959;49.798;9.928;2023-02-23T03:00:45;99253.72;;;7.11;100.00
19624;BME280;9959;49.798;9.928;2023-02-23T03:03:45;99250.59;;;7.01;100.00
19624;BME280;9959;49.798;9.928;2023-02-23T03:12:08;99255.19;;;7.07;100.00
19624;BME280;9959;49.798;9.928;2023-02-23T03:17:47;99252.09;;;7.10;100.00
19624;BME280;9959;49.798;9.928;2023-02-23T03:29:08;99257.38;;;6.97;100.00
19624;BME280;9959;49.798;9.928;2023-02-23T03:35:17;99265.41;;;6.97;100.00
19624;BME280;9959;49.798;9.928;2023-02-23T03:38:03;99265.19;;;6.92;100.00
19624;BME280;9959;49.798;9.928;2023-02-23T03:40:53;99265.19;;;6.92;100.00
19624;BME280;9959;49.798;9.928;2023-02-23T03:43:57;99266.03;;;6.99;100.00
19624;BME280;9959;49.798;9.928;2023-02-23T03:46:46;99267.59;;;6.87;100.00
19624;BME280;9959;49.798;9.928;2023-02-23T03:49:39;99261.22;;;6.88;100.00
19624;BME280;9959;49.798;9.928;2023-02-23T03:55:04;99273.06;;;7.00;100.00
19624;BME280;9959;49.798;9.928;2023-02-23T03:57:55;99274.31;;;7.04;100.00
19624;BME280;9959;49.798;9.928;2023-02-23T04:00:47;99275.56;;;7.08;100.00
19624;BME280;9959;49.798;9.928;2023-02-23T04:03:38;99271.44;;;7.12;100.00
19624;BME280;9959;49.798;9.928;2023-02-23T04:06:27;99271.88;;;7.16;100.00
19624;BME280;9959;49.798;9.928;2023-02-23T04:09:14;99262.38;;;7.13;100.00
19624;BME280;9959;49.798;9.928;2023-02-23T04:12:01;99270.44;;;7.13;100.00
19624;BME280;9959;49.798;9.928;2023-02-23T04:17:41;99273.34;;;7.19;100.00
19624;BME280;9959;49.798;9.928;2023-02-23T04:20:12;99268.47;;;6.94;100.00
19624;BME280;9959;49.798;9.928;2023-02-23T04:22:39;99277.53;;;6.93;100.00
19624;BME280;9959;49.798;9.928;2023-02-23T04:25:06;99272.13;;;6.87;100.00
19624;BME280;9959;49.798;9.928;2023-02-23T04:27:35;99276.91;;;6.91;100.00
19624;BME280;9959;49.798;9.928;2023-02-23T04:30:02;99274.63;;;6.88;100.00
19624;BME280;9959;49.798;9.928;2023-02-23T04:32:37;99272.19;;;6.93;100.00
19624;BME280;9959;49.798;9.928;2023-02-23T04:35:04;99272.97;;;6.87;100.00
19624;BME280;9959;49.798;9.928;2023-02-23T04:37:31;99274.22;;;6.91;100.00
19624;BME280;9959;49.798;9.928;2023-02-23T04:39:57;99276.66;;;6.86;100.00
19624;BME280;9959;49.798;9.928;2023-02-23T04:42:24;99279.28;;;6.73;100.00
19624;BME280;9959;49.798;9.928;2023-02-23T04:44:52;99274.16;;;6.78;100.00
19624;BME280;9959;49.798;9.928;2023-02-23T04:47:19;99285.50;;;6.80;100.00
19624;BME280;9959;49.798;9.928;2023-02-23T04:49:46;99280.63;;;6.62;100.00
19624;BME280;9959;49.798;9.928;2023-02-23T04:52:13;99282.78;;;6.73;100.00
19624;BME280;9959;49.798;9.928;2023-02-23T04:54:40;99282.34;;;6.70;100.00
19624;BME280;9959;49.798;9.928;2023-02-23T04:57:08;99277.22;;;6.75;100.00
19624;BME280;9959;49.798;9.928;2023-02-23T04:59:35;99281.13;;;6.72;100.00
19624;BME280;9959;49.798;9.928;2023-02-23T05:02:02;99276.59;;;6.73;100.00
19624;BME280;9959;49.798;9.928;2023-02-23T05:04:29;99283.22;;;6.77;100.00
19624;BME280;9959;49.798;9.928;2023-02-23T05:06:56;99283.22;;;6.77;100.00
19624;BME280;9959;49.798;9.928;2023-02-23T05:09:24;99285.25;;;6.75;100.00
19624;BME280;9959;49.798;9.928;2023-02-23T05:11:51;99280.59;;;6.84;100.00
19624;BME280;9959;49.798;9.928;2023-02-23T05:14:18;99279.16;;;6.88;100.00
19624;BME280;9959;49.798;9.928;2023-02-23T05:16:44;99281.81;;;6.81;100.00
19624;BME280;9959;49.798;9.928;2023-02-23T05:19:11;99278.69;;;6.77;100.00
19624;BME280;9959;49.798;9.928;2023-02-23T05:21:41;99288.63;;;6.90;100.00
19624;BME280;9959;49.798;9.928;2023-02-23T05:24:08;99286.13;;;6.82;100.00
19624;BME280;9959;49.798;9.928;2023-02-23T05:26:35;99281.19;;;6.79;100.00
19624;BME280;9959;49.798;9.928;2023-02-23T05:29:02;99283.69;;;6.87;100.00
19624;BME280;9959;49.798;9.928;2023-02-23T05:31:29;99281.88;;;6.94;100.00
19624;BME280;9959;49.798;9.928;2023-02-23T05:33:56;99282.84;;;6.87;100.00
19624;BME280;9959;49.798;9.928;2023-02-23T05:36:22;99274.22;;;6.91;100.00
19624;BME280;9959;49.798;9.928;2023-02-23T05:38:49;99276.31;;;6.96;100.00
19624;BME280;9959;49.798;9.928;2023-02-23T05:41:18;99270.38;;;7.00;100.00
19624;BME280;9959;49.798;9.928;2023-02-23T05:43:47;99268.88;;;6.91;100.00
19624;BME280;9959;49.798;9.928;2023-02-23T05:46:16;99270.28;;;6.81;100.00
19624;BME280;9959;49.798;9.928;2023-02-23T05:48:45;99278.69;;;6.77;100.00
19624;BME280;9959;49.798;9.928;2023-02-23T05:51:15;99280.53;;;6.77;100.00
19624;BME280;9959;49.798;9.928;2023-02-23T05:53:43;99280.78;;;6.82;100.00
19624;BME280;9959;49.798;9.928;2023-02-23T05:56:13;99278.09;;;6.82;100.00
19624;BME280;9959;49.798;9.928;2023-02-23T05:58:47;99277.09;;;6.83;100.00
19624;BME280;9959;49.798;9.928;2023-02-23T06:01:14;99286.34;;;6.87;100.00
19624;BME280;9959;49.798;9.928;2023-02-23T06:03:41;99282.47;;;6.90;100.00
19624;BME280;9959;49.798;9.928;2023-02-23T06:06:07;99281.25;;;6.92;100.00
19624;BME280;9959;49.798;9.928;2023-02-23T06:08:34;99279.97;;;6.88;100.00
19624;BME280;9959;49.798;9.928;2023-02-23T06:11:01;99280.38;;;6.85;100.00
19624;BME280;9959;49.798;9.928;2023-02-23T06:13:30;99278.75;;;6.91;100.00
19624;BME280;9959;49.798;9.928;2023-02-23T06:16:00;99283.28;;;6.90;100.00
19624;BME280;9959;49.798;9.928;2023-02-23T06:18:28;99292.19;;;6.97;100.00
19624;BME280;9959;49.798;9.928;2023-02-23T06:20:58;99291.56;;;6.95;100.00
19624;BME280;9959;49.798;9.928;2023-02-23T06:23:27;99295.91;;;6.96;100.00
19624;BME280;9959;49.798;9.928;2023-02-23T06:25:53;99299.19;;;6.98;100.00
19624;BME280;9959;49.798;9.928;2023-02-23T06:28:20;99303.53;;;6.99;100.00
19624;BME280;9959;49.798;9.928;2023-02-23T06:30:47;99303.16;;;7.02;100.00
19624;BME280;9959;49.798;9.928;2023-02-23T06:33:16;99306.47;;;7.04;100.00
19624;BME280;9959;49.798;9.928;2023-02-23T06:35:44;99301.09;;;7.04;100.00
19624;BME280;9959;49.798;9.928;2023-02-23T06:38:11;99308.75;;;7.07;100.00
19624;BME280;9959;49.798;9.928;2023-02-23T06:40:38;99309.38;;;7.16;100.00
19624;BME280;9959;49.798;9.928;2023-02-23T06:43:05;99312.31;;;7.21;100.00
19624;BME280;9959;49.798;9.928;2023-02-23T06:45:32;99314.41;;;7.26;100.00
19624;BME280;9959;49.798;9.928;2023-02-23T06:47:59;99317.47;;;7.64;100.00
19624;BME280;9959;49.798;9.928;2023-02-23T06:50:26;99316.09;;;7.40;100.00
19624;BME280;9959;49.798;9.928;2023-02-23T06:52:53;99318.78;;;7.40;100.00
19624;BME280;9959;49.798;9.928;2023-02-23T06:55:22;99322.31;;;7.47;100.00
19624;BME280;9959;49.798;9.928;2023-02-23T06:57:49;99331.72;;;7.77;100.00
19624;BME280;9959;49.798;9.928;2023-02-23T07:00:17;99322.69;;;7.98;100.00
19624;BME280;9959;49.798;9.928;2023-02-23T07:02:44;99327.56;;;7.62;100.00
19624;BME280;9959;49.798;9.928;2023-02-23T07:05:11;99331.84;;;7.56;100.00
19624;BME280;9959;49.798;9.928;2023-02-23T07:07:38;99328.78;;;7.59;100.00
19624;BME280;9959;49.798;9.928;2023-02-23T07:10:05;99333.44;;;7.92;100.00
19624;BME280;9959;49.798;9.928;2023-02-23T07:12:32;99329.66;;;7.79;100.00
19624;BME280;9959;49.798;9.928;2023-02-23T07:14:59;99332.91;;;7.68;100.00
19624;BME280;9959;49.798;9.928;2023-02-23T07:17:26;99333.19;;;7.93;100.00
19624;BME280;9959;49.798;9.928;2023-02-23T07:19:53;99334.03;;;8.00;100.00
19624;BME280;9959;49.798;9.928;2023-02-23T07:22:20;99339.38;;;7.80;100.00
19624;BME280;9959;49.798;9.928;2023-02-23T07:24:48;99336.09;;;7.92;100.00
19624;BME280;9959;49.798;9.928;2023-02-23T07:27:15;99337.56;;;8.07;100.00
19624;BME280;9959;49.798;9.928;2023-02-23T07:29:44;99343.06;;;7.79;100.00
19624;BME280;9959;49.798;9.928;2023-02-23T07:32:10;99334.00;;;7.80;100.00
19624;BME280;9959;49.798;9.928;2023-02-23T07:34:37;99333.63;;;8.03;100.00
19624;BME280;9959;49.798;9.928;2023-02-23T07:37:05;99340.69;;;8.11;100.00
19624;BME280;9959;49.798;9.928;2023-02-23T07:39:32;99338.91;;;8.58;100.00
19624;BME280;9959;49.798;9.928;2023-02-23T07:41:59;99329.19;;;8.43;100.00
19624;BME280;9959;49.798;9.928;2023-02-23T07:44:25;99333.13;;;8.47;100.00
19624;BME280;9959;49.798;9.928;2023-02-23T07:46:53;99334.97;;;8.34;100.00
19624;BME280;9959;49.798;9.928;2023-02-23T07:49:19;99337.25;;;8.43;100.00
19624;BME280;9959;49.798;9.928;2023-02-23T07:51:46;99340.69;;;8.24;100.00
19624;BME280;9959;49.798;9.928;2023-02-23T07:54:13;99340.13;;;8.55;100.00
19624;BME280;9959;49.798;9.928;2023-02-23T07:56:41;99340.38;;;8.47;100.00
19624;BME280;9959;49.798;9.928;2023-02-23T07:59:08;99343.88;;;8.61;100.00
19624;BME280;9959;49.798;9.928;2023-02-23T08:01:35;99342.84;;;8.42;100.00
19624;BME280;9959;49.798;9.928;2023-02-23T08:04:02;99342.84;;;8.62;100.00
19624;BME280;9959;49.798;9.928;2023-02-23T08:06:29;99335.81;;;8.61;100.00
19624;BME280;9959;49.798;9.928;2023-02-23T08:09:00;99340.75;;;8.83;100.00
19624;BME280;9959;49.798;9.928;2023-02-23T08:11:27;99338.72;;;8.72;100.00
19624;BME280;9959;49.798;9.928;2023-02-23T08:13:54;99343.44;;;8.77;100.00
19624;BME280;9959;49.798;9.928;2023-02-23T08:19:01;99354.59;;;8.67;100.00
19624;BME280;9959;49.798;9.928;2023-02-23T08:21:28;99347.78;;;8.85;100.00
19624;BME280;9959;49.798;9.928;2023-02-23T08:23:56;99359.34;;;8.59;100.00
19624;BME280;9959;49.798;9.928;2023-02-23T08:26:23;99358.97;;;8.75;100.00
19624;BME280;9959;49.798;9.928;2023-02-23T08:28:52;99357.69;;;8.58;100.00
19624;BME280;9959;49.798;9.928;2023-02-23T08:31:20;99360.59;;;8.56;100.00
19624;BME280;9959;49.798;9.928;2023-02-23T08:33:50;99360.16;;;8.79;100.00
19624;BME280;9959;49.798;9.928;2023-02-23T08:36:18;99362.66;;;8.80;100.00
19624;BME280;9959;49.798;9.928;2023-02-23T08:38:47;99356.25;;;8.62;100.00
19624;BME280;9959;49.798;9.928;2023-02-23T08:41:14;99359.16;;;8.73;100.00
19624;BME280;9959;49.798;9.928;2023-02-23T08:43:41;99360.59;;;8.69;100.00
19624;BME280;9959;49.798;9.928;2023-02-23T08:46:10;99365.34;;;8.74;100.00
19624;BME280;9959;49.798;9.928;2023-02-23T08:48:37;99365.13;;;8.75;100.00
19624;BME280;9959;49.798;9.928;2023-02-23T08:51:07;99364.31;;;8.95;100.00
19624;BME280;9959;49.798;9.928;2023-02-23T08:53:34;99360.19;;;8.92;100.00
19624;BME280;9959;49.798;9.928;2023-02-23T08:56:04;99357.25;;;9.07;100.00
19624;BME280;9959;49.798;9.928;2023-02-23T08:58:34;99364.69;;;9.11;100.00
19624;BME280;9959;49.798;9.928;2023-02-23T09:01:01;99357.25;;;9.20;100.00
19624;BME280;9959;49.798;9.928;2023-02-23T09:06:06;99359.31;;;9.18;100.00
19624;BME280;9959;49.798;9.928;2023-02-23T09:08:34;99359.72;;;9.28;100.00
19624;BME280;9959;49.798;9.928;2023-02-23T09:11:01;99365.09;;;9.28;100.00
19624;BME280;9959;49.798;9.928;2023-02-23T09:15:55;99360.50;;;9.35;100.00
19624;BME280;9959;49.798;9.928;2023-02-23T09:18:23;99362.19;;;9.30;100.00
19624;BME280;9959;49.798;9.928;2023-02-23T09:20:55;99364.25;;;9.28;100.00
19624;BME280;9959;49.798;9.928;2023-02-23T09:23:22;99366.50;;;9.31;100.00
19624;BME280;9959;49.798;9.928;2023-02-23T09:25:50;99360.09;;;9.38;100.00
19624;BME280;9959;49.798;9.928;2023-02-23T09:28:18;99356.78;;;9.36;100.00
19624;BME280;9959;49.798;9.928;2023-02-23T09:30:46;99357.25;;;9.20;100.00
19624;BME280;9959;49.798;9.928;2023-02-23T09:33:13;99364.44;;;9.33;100.00
19624;BME280;9959;49.798;9.928;2023-02-23T09:35:40;99361.31;;;9.36;100.00
19624;BME280;9959;49.798;9.928;2023-02-23T09:38:08;99360.06;;;9.52;100.00
19624;BME280;9959;49.798;9.928;2023-02-23T09:40:49;99362.97;;;9.50;100.00
19624;BME280;9959;49.798;9.928;2023-02-23T09:46:10;99361.63;;;9.72;100.00
19624;BME280;9959;49.798;9.928;2023-02-23T09:48:40;99362.66;;;9.71;100.00
19624;BME280;9959;49.798;9.928;2023-02-23T09:51:15;99365.75;;;9.75;100.00
19624;BME280;9959;49.798;9.928;2023-02-23T09:53:47;99364.94;;;9.74;100.00
19624;BME280;9959;49.798;9.928;2023-02-23T09:58:59;99362.84;;;9.76;100.00
19624;BME280;9959;49.798;9.928;2023-02-23T10:06:29;99377.22;;;10.02;100.00
19624;BME280;9959;49.798;9.928;2023-02-23T10:11:39;99377.97;;;9.77;100.00
19624;BME280;9959;49.798;9.928;2023-02-23T10:20:06;99382.59;;;10.02;100.00
19624;BME280;9959;49.798;9.928;2023-02-23T10:22:39;99386.03;;;10.22;100.00
19624;BME280;9959;49.798;9.928;2023-02-23T10:25:12;99382.50;;;10.28;100.00
19624;BME280;9959;49.798;9.928;2023-02-23T10:27:42;99375.28;;;10.54;100.00
19624;BME280;9959;49.798;9.928;2023-02-23T10:30:17;99379.69;;;10.73;100.00
19624;BME280;9959;49.798;9.928;2023-02-23T10:35:20;99379.56;;;11.11;97.21
19624;BME280;9959;49.798;9.928;2023-02-23T10:37:48;99379.91;;;10.96;96.09
19624;BME280;9959;49.798;9.928;2023-02-23T10:40:19;99375.19;;;11.16;94.84
19624;BME280;9959;49.798;9.928;2023-02-23T10:42:48;99378.34;;;11.32;93.96
19624;BME280;9959;49.798;9.928;2023-02-23T10:45:20;99373.19;;;11.48;92.95
19624;BME280;9959;49.798;9.928;2023-02-23T10:47:56;99378.50;;;11.73;90.50
19624;BME280;9959;49.798;9.928;2023-02-23T10:50:24;99380.06;;;11.63;90.11
19624;BME280;9959;49.798;9.928;2023-02-23T10:52:59;99373.13;;;11.73;89.78
19624;BME280;9959;49.798;9.928;2023-02-23T10:55:29;99377.63;;;11.79;88.70
19624;BME280;9959;49.798;9.928;2023-02-23T10:58:14;99376.69;;;12.04;88.81
19624;BME280;9959;49.798;9.928;2023-02-23T11:05:59;99375.47;;;12.60;85.46
19624;BME280;9959;49.798;9.928;2023-02-23T11:11:16;99372.94;;;12.05;85.72
19624;BME280;9959;49.798;9.928;2023-02-23T11:13:47;99372.84;;;12.41;84.08
19624;BME280;9959;49.798;9.928;2023-02-23T11:18:58;99364.44;;;12.19;84.78
19624;BME280;9959;49.798;9.928;2023-02-23T11:21:33;99369.25;;;12.17;86.42
19624;BME280;9959;49.798;9.928;2023-02-23T11:24:21;99365.63;;;12.24;83.56
19624;BME280;9959;49.798;9.928;2023-02-23T11:26:52;99355.56;;;12.84;80.86
19624;BME280;9959;49.798;9.928;2023-02-23T11:31:56;99356.44;;;12.54;82.43
19624;BME280;9959;49.798;9.928;2023-02-23T11:34:28;99356.84;;;12.28;81.46
19624;BME280;9959;49.798;9.928;2023-02-23T11:36:59;99351.38;;;12.46;82.52
19624;BME280;9959;49.798;9.928;2023-02-23T11:39:26;99351.50;;;12.51;83.30
19624;BME280;9959;49.798;9.928;2023-02-23T11:42:17;99346.28;;;12.38;81.63
19624;BME280;9959;49.798;9.928;2023-02-23T11:45:14;99347.97;;;12.51;81.39
19624;BME280;9959;49.798;9.928;2023-02-23T11:47:52;99345.19;;;12.58;81.76
19624;BME280;9959;49.798;9.928;2023-02-23T11:53:11;99347.16;;;12.62;80.84
19624;BME280;9959;49.798;9.928;2023-02-23T11:55:45;99343.56;;;12.80;80.69
19624;BME280;9959;49.798;9.928;2023-02-23T11:58:21;99338.81;;;12.64;79.09
19624;BME280;9959;49.798;9.928;2023-02-23T12:01:15;99342.34;;;12.52;81.09
19624;BME280;9959;49.798;9.928;2023-02-23T12:03:54;99338.16;;;12.27;81.08
19624;BME280;9959;49.798;9.928;2023-02-23T12:14:52;99332.03;;;12.31;81.95
19624;BME280;9959;49.798;9.928;2023-02-23T12:20:09;99331.25;;;12.42;80.28
19624;BME280;9959;49.798;9.928;2023-02-23T12:22:42;99330.84;;;12.69;79.59
19624;BME280;9959;49.798;9.928;2023-02-23T12:25:24;99327.84;;;12.35;80.81
19624;BME280;9959;49.798;9.928;2023-02-23T12:31:00;99320.56;;;12.36;81.09
19624;BME280;9959;49.798;9.928;2023-02-23T12:39:25;99311.69;;;12.17;82.04
19624;BME280;9959;49.798;9.928;2023-02-23T12:45:03;99317.25;;;11.74;83.90
19624;BME280;9959;49.798;9.928;2023-02-23T12:50:16;99308.78;;;11.52;85.33
19624;BME280;9959;49.798;9.928;2023-02-23T12:53:21;99316.75;;;11.47;85.93
19624;BME280;9959;49.798;9.928;2023-02-23T13:01:38;99299.91;;;11.33;87.45
19624;BME280;9959;49.798;9.928;2023-02-23T13:04:25;99310.00;;;11.56;87.15
19624;BME280;9959;49.798;9.928;2023-02-23T13:06:56;99310.44;;;11.53;87.24
19624;BME280;9959;49.798;9.928;2023-02-23T13:15:34;99301.28;;;11.72;85.19
19624;BME280;9959;49.798;9.928;2023-02-23T13:17:52;99296.94;;;11.90;84.30
19624;BME280;9959;49.798;9.928;2023-02-23T13:20:29;99304.88;;;11.84;84.70
19624;BME280;9959;49.798;9.928;2023-02-23T13:29:02;99293.31;;;11.96;83.79
19624;BME280;9959;49.798;9.928;2023-02-23T13:31:34;99291.69;;;11.95;83.54
19624;BME280;9959;49.798;9.928;2023-02-23T13:34:05;99295.50;;;12.17;83.04
19624;BME280;9959;49.798;9.928;2023-02-23T13:36:33;99282.38;;;12.32;81.98
19624;BME280;9959;49.798;9.928;2023-02-23T13:39:22;99284.75;;;12.40;80.95
19624;BME280;9959;49.798;9.928;2023-02-23T13:50:15;99284.44;;;12.72;79.78
19624;BME280;9959;49.798;9.928;2023-02-23T13:52:45;99276.19;;;12.67;78.84
19624;BME280;9959;49.798;9.928;2023-02-23T13:58:05;99277.22;;;12.42;78.51
19624;BME280;9959;49.798;9.928;2023-02-23T14:03:06;99281.00;;;12.41;78.29
19624;BME280;9959;49.798;9.928;2023-02-23T14:08:04;99285.59;;;12.52;78.18
19624;BME280;9959;49.798;9.928;2023-02-23T14:15:46;99286.06;;;12.49;78.75
19624;BME280;9959;49.798;9.928;2023-02-23T14:20:55;99277.94;;;12.61;78.40
19624;BME280;9959;49.798;9.928;2023-02-23T14:23:33;99283.91;;;12.40;78.28
19624;BME280;9959;49.798;9.928;2023-02-23T14:26:13;99277.13;;;12.49;78.24
19624;BME280;9959;49.798;9.928;2023-02-23T14:28:46;99285.66;;;12.34;78.07
19624;BME280;9959;49.798;9.928;2023-02-23T14:31:18;99274.53;;;12.66;77.76
19624;BME280;9959;49.798;9.928;2023-02-23T14:38:59;99281.16;;;12.58;78.62
19624;BME280;9959;49.798;9.928;2023-02-23T14:41:38;99278.31;;;12.65;77.71
19624;BME280;9959;49.798;9.928;2023-02-23T14:47:19;99275.84;;;12.51;78.56
19624;BME280;9959;49.798;9.928;2023-02-23T14:49:59;99276.50;;;12.35;77.96
19624;BME280;9959;49.798;9.928;2023-02-23T14:52:34;99284.25;;;12.32;78.00
19624;BME280;9959;49.798;9.928;2023-02-23T14:57:40;99279.66;;;12.20;78.56
19624;BME280;9959;49.798;9.928;2023-02-23T15:02:54;99285.25;;;12.07;79.58
19624;BME280;9959;49.798;9.928;2023-02-23T15:05:24;99284.72;;;11.87;80.68
19624;BME280;9959;49.798;9.928;2023-02-23T15:07:52;99291.53;;;11.90;81.02
19624;BME280;9959;49.798;9.928;2023-02-23T15:10:33;99287.88;;;11.84;82.02
19624;BME280;9959;49.798;9.928;2023-02-23T15:13:08;99278.03;;;11.90;81.96
19624;BME280;9959;49.798;9.928;2023-02-23T15:21:25;99287.09;;;11.47;84.53
19624;BME280;9959;49.798;9.928;2023-02-23T15:24:12;99273.06;;;11.57;84.52
19624;BME280;9959;49.798;9.928;2023-02-23T15:26:42;99281.38;;;11.55;85.46
19624;BME280;9959;49.798;9.928;2023-02-23T15:31:36;99286.38;;;11.51;86.97
19624;BME280;9959;49.798;9.928;2023-02-23T15:34:02;99285.75;;;11.38;87.68
19624;BME280;9959;49.798;9.928;2023-02-23T15:36:30;99289.41;;;11.25;89.42
19624;BME280;9959;49.798;9.928;2023-02-23T15:39:04;99282.47;;;11.17;90.40
19624;BME280;9959;49.798;9.928;2023-02-23T15:41:34;99283.50;;;11.16;90.76
19624;BME280;9959;49.798;9.928;2023-02-23T15:44:10;99287.97;;;11.23;91.92
19624;BME280;9959;49.798;9.928;2023-02-23T15:46:38;99281.03;;;11.15;92.76
19624;BME280;9959;49.798;9.928;2023-02-23T15:49:11;99285.06;;;11.06;94.01
19624;BME280;9959;49.798;9.928;2023-02-23T15:51:42;99283.56;;;11.10;95.60
19624;BME280;9959;49.798;9.928;2023-02-23T15:54:25;99284.41;;;11.10;94.85
19624;BME280;9959;49.798;9.928;2023-02-23T15:57:00;99289.25;;;11.02;95.37
19624;BME280;9959;49.798;9.928;2023-02-23T15:59:30;99285.06;;;10.88;96.20
19624;BME280;9959;49.798;9.928;2023-02-23T16:02:01;99290.22;;;10.89;96.44
19624;BME280;9959;49.798;9.928;2023-02-23T16:04:31;99292.38;;;10.80;96.88
19624;BME280;9959;49.798;9.928;2023-02-23T16:07:15;99292.47;;;10.92;97.59
19624;BME280;9959;49.798;9.928;2023-02-23T16:12:22;99285.38;;;10.73;97.31
19624;BME280;9959;49.798;9.928;2023-02-23T16:15:04;99291.38;;;10.75;97.74
19624;BME280;9959;49.798;9.928;2023-02-23T16:20:15;99290.38;;;10.69;97.83
19624;BME280;9959;49.798;9.928;2023-02-23T16:22:43;99290.16;;;10.71;97.07
19624;BME280;9959;49.798;9.928;2023-02-23T16:25:22;99289.66;;;10.62;97.31
19624;BME280;9959;49.798;9.928;2023-02-23T16:27:58;99287.19;;;10.61;97.50
19624;BME280;9959;49.798;9.928;2023-02-23T16:33:21;99294.03;;;10.57;97.56
19624;BME280;9959;49.798;9.928;2023-02-23T16:41:18;99302.81;;;10.45;99.81
19624;BME280;9959;49.798;9.928;2023-02-23T16:43:48;99299.59;;;10.37;100.00
19624;BME280;9959;49.798;9.928;2023-02-23T16:46:17;99297.13;;;10.35;100.00
19624;BME280;9959;49.798;9.928;2023-02-23T16:48:45;99294.25;;;10.30;100.00
19624;BME280;9959;49.798;9.928;2023-02-23T16:51:17;99296.34;;;10.28;100.00
19624;BME280;9959;49.798;9.928;2023-02-23T16:53:44;99299.28;;;10.20;100.00
19624;BME280;9959;49.798;9.928;2023-02-23T16:56:14;99302.16;;;10.25;100.00
19624;BME280;9959;49.798;9.928;2023-02-23T16:58:45;99307.31;;;10.27;100.00